DTTZ

Tozeur Nefta International Airport

Tozeur, Tunisia
TAF DTTZ 182300Z 1900/1924 23005KT CAVOK
Issued Valid From Valid To
Jan-18 @ 23:00 UTC
(3 hours ago)
Jan-19 @ 00:00 UTC
(2 hours ago)
Jan-20 @ 00:00 UTC
(in 22 hours)
Jan-19 @ 00:00 to Jan-20 @ 00:00
TAF DTTZ 182300Z 1900/1924 23005KT CAVOK
Wind Visibility Clouds Conditions
230° at 5 knots 10,000+ meters
  • No significant clouds
TAF DTTZ 182300Z 1900/1924 23005KT CAVOK
Issued Jan-18 @ 23:00 UTC
(3 hours ago)
Valid From Jan-19 @ 00:00 UTC
(2 hours ago)
Valid To Jan-20 @ 00:00 UTC
(in 22 hours)
Jan-19 @ 00:00 - Jan-20 @ 00:00
Wind Visibility
230° at 5 knots 10,000+ meters
Clouds
  • No significant clouds
Conditions